createdAt,value
2018-10-09T00:00:00.902Z,41.07
2018-10-09T00:03:07.909Z,41.40
2018-10-09T00:06:14.969Z,41.50
2018-10-09T00:09:22.219Z,42.63
2018-10-09T00:12:29.444Z,43.40
2018-10-09T00:15:36.775Z,44.00
2018-10-09T00:18:43.903Z,40.47
2018-10-09T00:21:51.108Z,42.93
2018-10-09T00:24:58.603Z,39.77
2018-10-09T00:28:04.971Z,41.63
2018-10-09T00:31:12.054Z,55.07
2018-10-09T00:34:19.255Z,46.60
2018-10-09T00:37:26.647Z,43.57
2018-10-09T00:40:33.681Z,47.33
2018-10-09T00:43:40.789Z,46.67
2018-10-09T00:46:47.077Z,45.17
2018-10-09T00:49:54.142Z,45.90
2018-10-09T00:53:01.155Z,46.50
2018-10-09T00:56:08.384Z,44.93
2018-10-09T00:59:15.443Z,46.53
2018-10-09T01:02:22.800Z,46.30
2018-10-09T01:05:30.079Z,45.50
2018-10-09T01:08:37.275Z,43.27
2018-10-09T01:11:44.499Z,42.80
2018-10-09T01:14:51.792Z,47.10
2018-10-09T01:17:58.960Z,44.57
2018-10-09T01:21:06.235Z,45.30
2018-10-09T01:24:13.270Z,44.90
2018-10-09T01:27:20.545Z,45.97
2018-10-09T01:30:27.814Z,44.77
2018-10-09T01:33:34.071Z,43.60
2018-10-09T01:36:40.736Z,42.03
2018-10-09T01:39:47.870Z,31.73
2018-10-09T01:42:55.166Z,29.13
2018-10-09T01:46:02.325Z,29.07
2018-10-09T01:49:09.647Z,31.13
2018-10-09T01:52:16.702Z,31.27
2018-10-09T01:55:23.722Z,31.23
2018-10-09T01:58:30.765Z,30.43
2018-10-09T02:01:37.982Z,30.10
2018-10-09T02:04:45.047Z,32.97
2018-10-09T02:07:52.335Z,33.70
2018-10-09T02:10:58.531Z,33.87
2018-10-09T02:14:04.900Z,35.60
2018-10-09T02:17:11.974Z,37.63
2018-10-09T02:20:19.231Z,39.00
2018-10-09T02:23:27.160Z,43.73
2018-10-09T02:26:34.502Z,47.20
2018-10-09T02:29:41.865Z,45.67
2018-10-09T02:32:48.747Z,44.03
2018-10-09T02:35:55.727Z,44.27
2018-10-09T02:39:03.010Z,42.73
2018-10-09T02:42:10.186Z,43.27
2018-10-09T02:45:17.519Z,46.23
2018-10-09T02:48:24.654Z,45.53
2018-10-09T02:51:31.812Z,46.90
2018-10-09T02:54:38.817Z,46.53
2018-10-09T02:57:45.952Z,38.07
2018-10-09T03:00:52.790Z,34.13
2018-10-09T03:03:59.904Z,33.23
2018-10-09T03:07:06.953Z,32.60
2018-10-09T03:10:14.083Z,31.87
2018-10-09T03:13:21.447Z,34.73
2018-10-09T03:16:28.432Z,35.57
2018-10-09T03:19:35.848Z,35.30
2018-10-09T03:22:43.248Z,37.33
2018-10-09T03:25:50.401Z,41.97
2018-10-09T03:28:57.727Z,39.63
2018-10-09T03:32:04.755Z,41.30
2018-10-09T03:35:11.870Z,42.60
2018-10-09T03:38:18.876Z,40.67
2018-10-09T03:41:25.233Z,42.03
2018-10-09T03:44:32.519Z,41.60
2018-10-09T03:47:39.661Z,48.20
2018-10-09T03:50:46.972Z,44.67
2018-10-09T03:53:54.115Z,50.63
2018-10-09T03:57:02.105Z,50.23
2018-10-09T04:00:09.236Z,53.17
2018-10-09T04:03:16.114Z,51.03
2018-10-09T04:06:23.254Z,52.97
2018-10-09T04:09:31.500Z,51.03
2018-10-09T04:12:38.614Z,50.10
2018-10-09T04:15:45.652Z,52.60
2018-10-09T04:18:52.804Z,50.80
2018-10-09T04:21:59.697Z,48.60
2018-10-09T04:25:06.578Z,48.13
2018-10-09T04:28:13.705Z,48.87
2018-10-09T04:31:20.051Z,50.47
2018-10-09T04:34:26.605Z,50.43
2018-10-09T04:37:32.853Z,52.43
2018-10-09T04:40:40.022Z,55.93
2018-10-09T04:43:47.269Z,55.40
2018-10-09T04:46:53.916Z,55.97
2018-10-09T04:50:01.050Z,59.23
2018-10-09T04:53:08.180Z,61.97
2018-10-09T04:56:15.374Z,60.20
2018-10-09T04:59:22.527Z,57.70
2018-10-09T05:02:28.761Z,62.23
2018-10-09T05:05:35.759Z,60.60
2018-10-09T05:08:42.848Z,60.43
2018-10-09T05:11:50.245Z,57.57
2018-10-09T05:14:57.352Z,60.20
2018-10-09T05:18:04.507Z,59.27
2018-10-09T05:21:11.817Z,58.43
2018-10-09T05:24:19.034Z,59.43
2018-10-09T05:27:26.201Z,59.37
2018-10-09T05:30:33.266Z,58.17
2018-10-09T05:33:40.389Z,57.07
2018-10-09T05:36:47.355Z,56.83
2018-10-09T05:39:53.639Z,54.60
2018-10-09T05:43:00.739Z,52.30
2018-10-09T05:46:07.038Z,50.13
2018-10-09T05:49:13.181Z,49.37
2018-10-09T05:52:20.296Z,48.30
2018-10-09T05:55:27.377Z,46.83
2018-10-09T05:58:34.643Z,45.13
2018-10-09T06:01:41.928Z,43.30
2018-10-09T06:04:49.361Z,44.60
2018-10-09T06:07:56.671Z,42.60
2018-10-09T06:11:03.849Z,41.23
2018-10-09T06:14:11.447Z,40.57
2018-10-09T06:17:18.805Z,40.53
2018-10-09T06:20:25.319Z,38.10
2018-10-09T06:23:33.178Z,34.83
2018-10-09T06:26:40.359Z,32.77
2018-10-09T06:29:47.175Z,36.33
2018-10-09T06:32:54.092Z,34.40
2018-10-09T06:36:01.114Z,36.20
2018-10-09T06:39:08.095Z,38.87
2018-10-09T06:42:15.158Z,38.80
2018-10-09T06:45:21.338Z,39.93
2018-10-09T06:48:28.569Z,40.43
2018-10-09T06:51:35.900Z,39.10
2018-10-09T06:54:43.041Z,39.87
2018-10-09T06:57:50.212Z,41.53
2018-10-09T07:00:57.349Z,43.83
2018-10-09T07:04:04.433Z,45.63
2018-10-09T07:07:11.724Z,44.23
2018-10-09T07:10:18.050Z,47.50
2018-10-09T07:13:25.384Z,46.37
2018-10-09T07:16:32.395Z,48.47
2018-10-09T07:19:39.356Z,46.33
2018-10-09T07:22:46.643Z,44.97
2018-10-09T07:25:53.809Z,45.53
2018-10-09T07:29:00.206Z,45.80
2018-10-09T07:32:08.464Z,43.63
2018-10-09T07:35:15.591Z,45.30
2018-10-09T07:38:22.699Z,44.70
2018-10-09T07:41:29.662Z,44.07
2018-10-09T07:44:36.735Z,42.90
2018-10-09T07:47:43.653Z,45.73
2018-10-09T07:50:50.229Z,42.90
2018-10-09T07:53:57.225Z,43.50
2018-10-09T07:57:04.279Z,44.10
2018-10-09T08:00:11.264Z,42.73
2018-10-09T08:03:18.067Z,44.53
2018-10-09T08:06:25.157Z,45.10
2018-10-09T08:09:32.206Z,46.40
2018-10-09T08:12:41.166Z,43.77
2018-10-09T08:15:55.548Z,47.73
2018-10-09T08:19:03.212Z,46.10
2018-10-09T08:22:10.931Z,46.43
2018-10-09T08:25:18.011Z,47.10
2018-10-09T08:28:25.166Z,48.40
2018-10-09T08:31:33.545Z,50.47
2018-10-09T08:34:41.315Z,48.10
2018-10-09T08:37:48.109Z,45.17
2018-10-09T08:40:55.300Z,45.87
2018-10-09T08:44:02.444Z,46.30
2018-10-09T08:47:09.584Z,44.23
2018-10-09T08:50:16.704Z,43.57
2018-10-09T08:53:23.780Z,43.87
2018-10-09T08:56:30.572Z,42.60
2018-10-09T08:59:37.447Z,45.77
2018-10-09T09:02:44.627Z,43.67
2018-10-09T09:05:51.586Z,45.60
2018-10-09T09:08:57.755Z,44.27
2018-10-09T09:12:04.670Z,45.47
2018-10-09T09:15:11.946Z,44.77
2018-10-09T09:18:18.808Z,44.57
2018-10-09T09:21:25.843Z,45.23
2018-10-09T09:24:32.817Z,46.73
2018-10-09T09:27:40.151Z,44.03
2018-10-09T09:30:47.371Z,43.23
2018-10-09T09:33:54.498Z,42.80
2018-10-09T09:37:02.030Z,43.10
2018-10-09T09:40:09.894Z,44.60
2018-10-09T09:43:17.025Z,48.67
2018-10-09T09:46:24.996Z,44.87
2018-10-09T09:49:31.508Z,44.73
2018-10-09T09:52:38.973Z,45.47
2018-10-09T09:55:46.179Z,43.13
2018-10-09T09:58:53.303Z,42.57
2018-10-09T10:02:00.411Z,41.47
2018-10-09T10:05:07.653Z,41.33
2018-10-09T10:08:16.805Z,39.90
2018-10-09T10:11:26.229Z,40.70
2018-10-09T10:14:38.616Z,40.10
2018-10-09T10:17:51.085Z,34.90
2018-10-09T10:21:01.686Z,33.83
2018-10-09T10:24:11.220Z,34.07
2018-10-09T10:27:20.913Z,33.37
2018-10-09T10:30:35.252Z,32.23
2018-10-09T10:33:45.905Z,31.43
2018-10-09T10:36:54.779Z,30.70
2018-10-09T10:40:03.694Z,29.67
2018-10-09T10:43:14.880Z,33.83
2018-10-09T10:46:24.856Z,31.07
2018-10-09T10:49:36.827Z,29.90
2018-10-09T10:52:47.750Z,30.23
2018-10-09T10:55:58.235Z,28.93
2018-10-09T10:59:09.049Z,24.20
2018-10-09T11:02:19.493Z,28.53
2018-10-09T11:05:28.080Z,26.80
2018-10-09T11:08:34.988Z,26.87
2018-10-09T11:11:42.304Z,66.03
2018-10-09T11:14:49.511Z,25.23
2018-10-09T11:17:56.713Z,25.03
2018-10-09T11:21:03.550Z,24.53
2018-10-09T11:24:10.625Z,25.90
2018-10-09T11:27:17.724Z,26.10
2018-10-09T11:30:24.930Z,24.10
2018-10-09T11:33:31.905Z,25.07
2018-10-09T11:36:39.227Z,26.27
2018-10-09T11:39:46.468Z,23.97
2018-10-09T11:42:52.772Z,26.30
2018-10-09T11:46:00.119Z,25.20
2018-10-09T11:49:07.292Z,25.90
2018-10-09T11:52:14.588Z,25.93
2018-10-09T11:55:21.675Z,25.00
2018-10-09T11:58:28.548Z,24.30
2018-10-09T12:01:34.767Z,24.60
2018-10-09T12:04:41.795Z,26.80
2018-10-09T12:07:49.021Z,33.43
2018-10-09T12:10:56.036Z,25.80
2018-10-09T12:14:03.213Z,24.33
2018-10-09T12:17:10.494Z,25.00
2018-10-09T12:20:17.655Z,24.17
2018-10-09T12:23:24.777Z,24.00
2018-10-09T12:26:31.940Z,27.70
2018-10-09T12:29:39.313Z,23.93
2018-10-09T12:32:46.500Z,23.97
2018-10-09T12:35:53.741Z,24.07
2018-10-09T12:39:01.028Z,23.47
2018-10-09T12:42:08.296Z,22.40
2018-10-09T12:45:14.645Z,21.10
2018-10-09T12:48:21.639Z,21.43
2018-10-09T12:51:29.086Z,23.60
2018-10-09T12:54:36.160Z,23.40
2018-10-09T12:57:43.241Z,23.50
2018-10-09T13:00:50.512Z,22.50
2018-10-09T13:03:57.537Z,22.73
2018-10-09T13:07:04.840Z,23.53
2018-10-09T13:10:11.114Z,20.50
2018-10-09T13:13:18.245Z,24.83
2018-10-09T13:16:25.473Z,21.23
2018-10-09T13:19:50.457Z,21.43
2018-10-09T13:23:09.702Z,22.57
2018-10-09T13:26:16.780Z,22.63
2018-10-09T13:29:23.999Z,19.80
2018-10-09T13:32:31.099Z,19.13
2018-10-09T13:35:38.338Z,17.93
2018-10-09T13:38:45.756Z,17.90
2018-10-09T13:41:53.045Z,19.23
2018-10-09T13:45:00.130Z,19.97
2018-10-09T13:48:07.544Z,17.57
2018-10-09T13:51:14.759Z,17.47
2018-10-09T13:54:22.037Z,21.23
2018-10-09T13:57:30.238Z,17.53
2018-10-09T14:00:37.528Z,16.37
2018-10-09T14:03:44.626Z,20.10
2018-10-09T14:06:51.894Z,17.47
2018-10-09T14:09:59.032Z,15.53
2018-10-09T14:13:06.310Z,15.67
2018-10-09T14:16:13.490Z,15.83
2018-10-09T14:19:20.504Z,16.93
2018-10-09T14:22:27.907Z,16.27
2018-10-09T14:25:35.841Z,15.73
2018-10-09T14:28:43.204Z,15.33
2018-10-09T14:31:50.423Z,16.53
2018-10-09T14:34:57.563Z,15.83
2018-10-09T14:38:04.719Z,15.83
2018-10-09T14:41:13.042Z,16.07
2018-10-09T14:44:20.216Z,15.13
2018-10-09T14:47:27.405Z,17.33
2018-10-09T14:50:34.376Z,17.23
2018-10-09T14:53:41.501Z,15.50
2018-10-09T14:56:48.670Z,15.47
2018-10-09T14:59:55.697Z,15.27
2018-10-09T15:03:02.257Z,15.47
2018-10-09T15:06:11.328Z,15.80
2018-10-09T15:09:22.327Z,15.47
2018-10-09T15:12:29.560Z,15.33
2018-10-09T15:15:36.879Z,16.40
2018-10-09T15:18:43.999Z,14.93
2018-10-09T15:21:51.256Z,15.40
2018-10-09T15:24:59.603Z,14.83
2018-10-09T15:28:06.780Z,15.77
2018-10-09T15:31:14.108Z,15.90
2018-10-09T15:34:21.193Z,14.33
2018-10-09T15:37:28.226Z,14.47
2018-10-09T15:40:35.258Z,14.20
2018-10-09T15:43:42.335Z,14.00
2018-10-09T15:46:49.296Z,14.20
2018-10-09T15:49:57.430Z,13.63
2018-10-09T15:53:04.571Z,12.73
2018-10-09T15:56:11.632Z,16.97
2018-10-09T15:59:18.807Z,11.97
2018-10-09T16:02:25.876Z,13.57
2018-10-09T16:05:33.231Z,11.20
2018-10-09T16:08:40.995Z,11.23
2018-10-09T16:11:48.039Z,11.40
2018-10-09T16:14:56.401Z,13.37
2018-10-09T16:18:03.560Z,13.07
2018-10-09T16:21:10.745Z,13.13
2018-10-09T16:24:18.907Z,13.23
2018-10-09T16:27:26.260Z,13.23
2018-10-09T16:30:33.493Z,12.93
2018-10-09T16:33:40.933Z,13.67
2018-10-09T16:36:47.825Z,48.63
2018-10-09T16:39:54.785Z,14.00
2018-10-09T16:43:01.789Z,13.93
2018-10-09T16:46:08.790Z,14.43
2018-10-09T16:49:16.097Z,16.27
2018-10-09T16:52:23.052Z,17.63
2018-10-09T16:55:30.190Z,21.17
2018-10-09T16:58:37.356Z,18.33
2018-10-09T17:01:44.856Z,17.70
2018-10-09T17:04:52.003Z,19.20
2018-10-09T17:07:59.223Z,18.33
2018-10-09T17:11:06.224Z,20.97
2018-10-09T17:14:13.356Z,19.73
2018-10-09T17:17:20.666Z,21.87
2018-10-09T17:20:26.980Z,20.13
2018-10-09T17:23:33.946Z,21.70
2018-10-09T17:26:41.079Z,21.40
2018-10-09T17:29:48.100Z,22.17
2018-10-09T17:32:55.333Z,21.97
2018-10-09T17:36:02.313Z,24.60
2018-10-09T17:39:09.266Z,25.57
2018-10-09T17:42:16.773Z,27.07
2018-10-09T17:45:23.896Z,26.30
2018-10-09T17:48:30.951Z,28.43
2018-10-09T17:51:38.094Z,26.27
2018-10-09T17:54:44.358Z,27.90
2018-10-09T17:57:51.549Z,29.33
2018-10-09T18:00:58.756Z,29.53
2018-10-09T18:04:05.915Z,29.90
2018-10-09T18:07:13.118Z,31.17
2018-10-09T18:10:20.142Z,31.83
2018-10-09T18:13:27.188Z,34.43
2018-10-09T18:16:34.299Z,34.27
2018-10-09T18:19:41.376Z,34.07
2018-10-09T18:22:48.372Z,31.00
2018-10-09T18:25:55.302Z,32.17
2018-10-09T18:29:02.861Z,32.90
2018-10-09T18:32:09.832Z,32.80
2018-10-09T18:35:17.001Z,33.67
2018-10-09T18:38:24.300Z,34.17
2018-10-09T18:41:31.481Z,35.20
2018-10-09T18:44:38.879Z,35.87
2018-10-09T18:47:51.074Z,34.10
2018-10-09T18:50:58.259Z,36.53
2018-10-09T18:54:05.419Z,36.50
2018-10-09T18:57:11.708Z,36.23
2018-10-09T19:00:19.737Z,35.97
2018-10-09T19:03:26.832Z,37.53
2018-10-09T19:06:33.913Z,37.87
2018-10-09T19:09:40.843Z,38.87
2018-10-09T19:12:48.077Z,37.33
2018-10-09T19:15:54.880Z,38.33
2018-10-09T19:19:01.728Z,36.53
2018-10-09T19:22:08.631Z,35.93
2018-10-09T19:25:17.696Z,37.07
2018-10-09T19:28:24.675Z,37.10
2018-10-09T19:31:31.758Z,36.20
2018-10-09T19:34:38.754Z,38.47
2018-10-09T19:37:45.812Z,41.43
2018-10-09T19:40:53.105Z,43.87
2018-10-09T19:44:00.192Z,41.27
2018-10-09T19:47:07.220Z,41.23
2018-10-09T19:50:14.376Z,41.43
2018-10-09T19:53:21.668Z,39.97
2018-10-09T19:56:28.627Z,39.20
2018-10-09T19:59:35.812Z,41.07
2018-10-09T20:02:42.931Z,39.23
2018-10-09T20:05:50.160Z,40.17
2018-10-09T20:08:57.281Z,48.07
2018-10-09T20:12:04.583Z,39.50
2018-10-09T20:15:11.534Z,41.63
2018-10-09T20:18:18.579Z,39.87
2018-10-09T20:21:25.780Z,45.58
2018-10-09T20:24:33.428Z,39.77
2018-10-09T20:27:41.188Z,37.60
2018-10-09T20:30:48.307Z,41.47
2018-10-09T20:33:57.245Z,42.60
2018-10-09T20:37:04.468Z,40.77
2018-10-09T20:40:11.791Z,41.83
2018-10-09T20:43:18.969Z,43.37
2018-10-09T20:46:26.348Z,43.17
2018-10-09T20:49:33.654Z,43.67
2018-10-09T20:52:40.664Z,40.83
2018-10-09T20:55:47.899Z,43.03
2018-10-09T20:58:56.074Z,43.17
2018-10-09T21:02:03.606Z,44.33
2018-10-09T21:05:11.860Z,43.47
2018-10-09T21:08:19.398Z,43.10
2018-10-09T21:11:26.348Z,44.33
2018-10-09T21:14:34.407Z,43.50
2018-10-09T21:17:41.805Z,46.73
2018-10-09T21:20:49.635Z,43.50
2018-10-09T21:23:57.724Z,45.87
2018-10-09T21:27:04.595Z,45.07
2018-10-09T21:30:11.656Z,44.40
2018-10-09T21:33:19.015Z,43.20
2018-10-09T21:36:26.006Z,44.43
2018-10-09T21:39:33.234Z,44.27
2018-10-09T21:42:40.348Z,44.10
2018-10-09T21:45:47.540Z,43.20
2018-10-09T21:48:54.757Z,44.30
2018-10-09T21:52:02.016Z,44.40
2018-10-09T21:55:09.284Z,42.07
2018-10-09T21:58:16.569Z,43.13
2018-10-09T22:01:23.735Z,41.73
2018-10-09T22:04:30.780Z,44.23
2018-10-09T22:07:38.120Z,41.60
2018-10-09T22:10:45.338Z,43.13
2018-10-09T22:13:52.793Z,41.93
2018-10-09T22:16:59.164Z,42.57
2018-10-09T22:20:14.544Z,43.37
2018-10-09T22:23:21.843Z,43.73
2018-10-09T22:26:29.356Z,42.77
2018-10-09T22:29:37.768Z,44.23
2018-10-09T22:32:44.354Z,44.77
2018-10-09T22:35:51.419Z,43.83
2018-10-09T22:38:58.624Z,44.50
2018-10-09T22:42:05.919Z,44.03
2018-10-09T22:45:13.270Z,43.20
2018-10-09T22:48:20.884Z,45.10
2018-10-09T22:51:28.098Z,42.33
2018-10-09T22:54:34.968Z,44.27
2018-10-09T22:57:42.145Z,42.83
2018-10-09T23:00:49.475Z,42.33
2018-10-09T23:03:56.691Z,49.50
2018-10-09T23:07:03.935Z,46.57
2018-10-09T23:10:10.821Z,48.43
2018-10-09T23:13:17.902Z,49.60
2018-10-09T23:16:25.122Z,46.80
2018-10-09T23:19:32.363Z,48.90
2018-10-09T23:22:39.493Z,52.60
2018-10-09T23:25:46.618Z,79.05
2018-10-09T23:28:53.751Z,56.73
2018-10-09T23:32:00.940Z,53.80
2018-10-09T23:35:07.841Z,54.27
2018-10-09T23:38:14.995Z,55.97
2018-10-09T23:41:22.244Z,58.80
2018-10-09T23:44:28.668Z,54.50
2018-10-09T23:47:35.741Z,58.43
2018-10-09T23:50:42.970Z,60.10
2018-10-09T23:53:50.072Z,62.50
2018-10-09T23:56:57.235Z,58.73
